LGTSLGSM

Guest
Details From LGTS - Thessalonik Makedonia
To LGSM - SAMOS
Flight Number -
Tags decoded
Created
Modified
Stats Distance 256 nm / 475 km
Max Altitude 0 ft / 0 m
Waypoints 9
Social Downloads 1
Likes 0
Share VATSIM

Download

Looking for another format? Having issues loading an existing format? Contact us
Advertisement - Login to hide

Notes

Requested: LGTS TSL UN130 MES UL609 URNIL LGSM

Route

LGTS TSL UN130 MES UL609 URNIL LGSM

ID Type Via Altitude Latitude Longitude Leg Dist Tot Dist Heading (true) Name
O LGTS APT - 0 ft / 0 m 40.51952˚ 22.97202˚ - 0 nm - Thessalonik Makedonia
TSL VOR - 0 ft / 0 m 40.45694˚ 22.99111˚ 3 nm 3 nm 167° / 167° THESSALONIKI VOR-DME
ESOPO FIX UN130 (AWY-HI) 0 ft / 0 m 39.33944˚ 24.50222˚ 96 nm 100 nm 133° / 134° -
PIVOS FIX UN130 (AWY-HI) 0 ft / 0 m 38.37472˚ 25.75028˚ 82 nm 182 nm 134° / 135° -
MES VOR UN130 (AWY-HI) 0 ft / 0 m 38.25167˚ 25.90556˚ 10 nm 193 nm 135° / 135° MESTA VOR-DME
PIPEN FIX UL609 (AWY-HI) 0 ft / 0 m 38.06139˚ 26.11667˚ 15 nm 208 nm 139° / 139° -
IKARO FIX UL609 (AWY-HI) 0 ft / 0 m 37.86639˚ 26.33111˚ 15 nm 223 nm 139° / 139° -
URNIL FIX UL609 (AWY-HI) 0 ft / 0 m 37.68500˚ 26.52861˚ 14 nm 238 nm 139° / 139° -
O LGSM APT - 0 ft / 0 m 37.68901˚ 26.91112˚ 18 nm 256 nm 89° / 89° SAMOS

Altitude Profile

Advertisement - Login to hide

Weather


0- 5 10 15 20 25 30 35+ Temperature / ° C

Clouds and Precipitation
Forecast for 2017-12-18 18:00 UTC. Updated 2 hours ago

Ground ~20,000 ft ~40,000 ft Winds

LGTS

Details ICAO LGTS (SKG)
Name Thessalonik Makedonia
Region Greece
Timezone Europe/Athens (UTC+2.0)
Stats Elevation 22 ft / 7 m (AMSL)
Location 40.519522° 22.972017°
Runways 2
Magnetic Variation 4.624° E

METAR

LGTS 181650Z 34009KT 9999 -RA BKN030 06/02 Q1016 NOSIG

Decode

TAF

TAF AMD LGTS 181400Z 1814/1912 34020KT 9999 SCT020 TEMPO 1812/1820 5000 RA SCT008 BKN020 BECMG 1820/1822 34020G30KT 9999 FEW030 BECMG 1908/1910 34015KT

Decode

Departure Runways

ID Width Length Bearing (true) Bearing (mag) Surface Threshold Offset Overrun Length
10 164 ft / 50 m 7,990 ft / 2,435 m 103.95° 99.33° Asphalt 0 ft / 0 m 150 ft / 46 m
16 197 ft / 60 m 7,927 ft / 2,416 m 166.35° 161.73° Asphalt 0 ft / 0 m 200 ft / 61 m
28 164 ft / 50 m 7,990 ft / 2,435 m 283.97° 279.35° Asphalt 0 ft / 0 m 150 ft / 46 m
34 197 ft / 60 m 7,927 ft / 2,416 m 346.36° 341.74° Asphalt 0 ft / 0 m 200 ft / 61 m

LGSM

Details ICAO LGSM (SMI)
Name SAMOS
Region Greece
Timezone Europe/Athens (UTC+2.0)
Stats Elevation 19 ft / 6 m (AMSL)
Location 37.689012° 26.911123°
Runways 1
Magnetic Variation 4.802° E

METAR

LGSM 181650Z 22010KT 9999 SCT020 13/07 Q1014

Decode

TAF

Not found

Destination Runways

ID Width Length Bearing (true) Bearing (mag) Surface Threshold Offset Overrun Length
09 148 ft / 45 m 6,690 ft / 2,039 m 94.02° 89.22° Asphalt 230 ft / 70 m 0 ft / 0 m
27 148 ft / 45 m 6,690 ft / 2,039 m 274.03° 269.23° Asphalt 0 ft / 0 m 0 ft / 0 m

Popular Alternatives